New Liberty, Iowa
Current Conditions -  °F | °C
As of 1:52 AM on Monday 22 Dec 2014 (Local Time) from KDVN Reporting Station
Overcast Overcast  
Wind Chill: 26°   Ceiling: 6000
Heat Index: 35°   Visibility: 8mi
Dew Point: 30°   Wind: 15mph
Humidity: 82%   Direction: 150°SSE
Pressure: 29.88"   Gusts: NA
Location:  41.72°N, 90.88°W
Report Text: KDVN 220752Z AUTO 15013KT 8SM FEW032 OVC060 02/M01 A2988 RMK AO2 SLP123 T00171011
Loading
Personal Weather Stations






























Interactive Weather Map New forecast layout! Learn more

10-Day Weather Forecast

Advertisements
Track Severe Weather on mobile